Time;durP1;ratioP1;P1;durP2;ratioP2;P2;SDS_P1;SDS_P2;PMS_P1;PMS_P2;Temp;Humidity;BMP_temperature;BMP_pressure;BME280_temperature;BME280_humidity;BME280_pressure;Samples;Min_cycle;Max_cycle;Signal;HPM_P1;HPM_P2
2022/12/30 00:01:18;;;;;;;0.00;0.00;;;5.80;99.90;;;;;;5089662;28;20031;-89
2022/12/30 00:03:44;;;;;;;0.22;0.22;;;5.80;99.90;;;;;;5089407;28;20053;-89
2022/12/30 00:06:16;;;;;;;0.08;0.08;;;5.80;99.90;;;;;;5076344;28;20176;-89
2022/12/30 00:08:46;;;;;;;0.10;0.10;;;5.80;99.90;;;;;;5082205;28;20048;-89
2022/12/30 00:11:14;;;;;;;0.15;0.15;;;6.60;99.90;;;;;;5082709;28;20071;-89
2022/12/30 00:35:15;;;;;;;0.00;0.00;;;5.60;99.90;;;;;;5099005;28;20470;-88
2022/12/30 00:37:42;;;;;;;0.00;0.00;;;5.60;99.90;;;;;;5071715;28;20056;-89
2022/12/30 00:40:08;;;;;;;1.50;0.98;;;5.50;99.90;;;;;;5061255;28;20060;-89
2022/12/30 00:45:25;;;;;;;0.28;0.28;;;5.50;99.90;;;;;;5080229;28;20055;-89
2022/12/30 00:47:51;;;;;;;0.00;0.00;;;5.50;99.90;;;;;;5061301;28;20051;-89
2022/12/30 00:56:12;;;;;;;0.00;0.00;;;5.50;99.90;;;;;;5095526;28;20118;-89
2022/12/30 00:58:38;;;;;;;0.00;0.00;;;5.50;99.90;;;;;;5035926;28;20143;-89
2022/12/30 01:01:04;;;;;;;0.53;0.50;;;5.50;99.90;;;;;;5059707;28;20123;-89
2022/12/30 01:03:29;;;;;;;1.00;0.10;;;5.50;99.90;;;;;;5049661;28;20036;-89
2022/12/30 01:05:55;;;;;;;0.30;0.30;;;5.60;99.90;;;;;;5042147;28;20039;-89
2022/12/30 01:08:21;;;;;;;0.23;0.10;;;5.50;99.90;;;;;;5051100;28;20081;-89
2022/12/30 01:10:46;;;;;;;0.00;0.00;;;5.60;99.90;;;;;;5061255;28;20385;-89
2022/12/30 01:13:12;;;;;;;0.10;0.10;;;5.60;99.90;;;;;;5077338;28;20048;-89
2022/12/30 01:15:38;;;;;;;0.00;0.00;;;5.60;99.90;;;;;;5029898;28;20041;-89
2022/12/30 01:18:06;;;;;;;0.37;0.10;;;5.50;99.90;;;;;;5022706;28;20102;-89
2022/12/30 01:20:34;;;;;;;0.25;0.10;;;5.50;99.90;;;;;;5025000;28;20052;-89
2022/12/30 01:23:02;;;;;;;0.30;0.30;;;5.50;99.90;;;;;;5041020;28;20067;-89
2022/12/30 01:25:35;;;;;;;0.00;0.00;;;5.50;99.90;;;;;;5040436;28;20080;-89
2022/12/30 01:28:01;;;;;;;0.15;0.10;;;5.50;99.90;;;;;;5040073;28;20040;-89
2022/12/30 01:30:29;;;;;;;0.30;0.30;;;5.50;99.90;;;;;;5040238;28;20430;-89
2022/12/30 01:32:57;;;;;;;0.00;0.00;;;5.40;99.90;;;;;;5057150;28;20047;-89
2022/12/30 01:35:28;;;;;;;0.40;0.20;;;5.50;99.90;;;;;;5024507;28;20041;-89
2022/12/30 01:38:02;;;;;;;0.10;0.10;;;4.60;99.90;;;;;;5032619;28;20082;-89
2022/12/30 01:40:40;;;;;;;0.60;0.10;;;5.50;99.90;;;;;;5055053;28;20394;-89
2022/12/30 01:43:16;;;;;;;0.00;0.00;;;5.40;99.90;;;;;;5068023;28;20055;-89
2022/12/30 01:45:46;;;;;;;0.60;0.00;;;5.40;99.90;;;;;;5037260;28;20048;-89
2022/12/30 01:48:19;;;;;;;1.67;0.70;;;5.40;99.90;;;;;;5043840;28;20044;-89
2022/12/30 01:51:28;;;;;;;0.40;0.40;;;5.30;99.90;;;;;;5016287;28;20105;-89
2022/12/30 01:54:12;;;;;;;;;;;;;;;;;;;;;
2022/12/30 01:56:49;;;;;;;0.03;0.03;;;5.20;99.90;;;;;;5056412;28;20072;-89
2022/12/30 01:59:25;;;;;;;0.10;0.10;;;5.20;99.90;;;;;;5049605;28;20135;-89
2022/12/30 02:01:54;;;;;;;0.10;0.10;;;5.10;99.90;;;;;;5055768;28;20053;-89
2022/12/30 02:04:25;;;;;;;0.00;0.00;;;5.10;99.90;;;;;;5049401;28;20082;-89
2022/12/30 02:13:59;;;;;;;0.00;0.00;;;4.30;99.90;;;;;;5053585;28;20095;-89
2022/12/30 02:17:00;;;;;;;0.30;0.30;;;5.40;99.90;;;;;;5032771;28;20098;-89
2022/12/30 02:19:44;;;;;;;0.00;0.00;;;5.00;99.90;;;;;;5054026;28;20062;-89
2022/12/30 02:32:54;;;;;;;0.20;0.20;;;5.00;99.90;;;;;;5093392;28;20061;-89
2022/12/30 02:35:44;;;;;;;0.00;0.00;;;5.00;99.90;;;;;;5076392;28;20044;-89
2022/12/30 02:38:31;;;;;;;0.00;0.00;;;5.00;99.90;;;;;;5059671;28;20043;-89
2022/12/30 02:47:16;;;;;;;0.55;0.20;;;5.00;99.90;;;;;;5075749;28;20059;-89
2022/12/30 02:52:13;;;;;;;2.35;0.10;;;5.00;99.90;;;;;;5076186;28;20441;-88
2022/12/30 02:52:50;;;;;;;0.20;0.10;;;5.00;99.90;;;;;;5053043;28;20123;-89
2022/12/30 03:05:54;;;;;;;0.75;0.28;;;4.90;99.90;;;;;;5034046;28;20108;-89
2022/12/30 03:08:19;;;;;;;0.20;0.20;;;4.90;99.90;;;;;;5055372;28;20140;-89
2022/12/30 03:11:15;;;;;;;0.00;0.00;;;4.90;99.90;;;;;;5039321;28;20131;-89
2022/12/30 03:13:51;;;;;;;0.35;0.20;;;4.90;99.90;;;;;;5039346;28;20044;-89
2022/12/30 03:19:50;;;;;;;0.22;0.17;;;4.80;99.90;;;;;;5036117;28;20048;-88
2022/12/30 03:28:15;;;;;;;0.05;0.05;;;4.80;99.90;;;;;;5053049;28;20043;-89
2022/12/30 03:31:00;;;;;;;0.08;0.08;;;4.80;99.90;;;;;;5020445;28;20059;-89
2022/12/30 03:33:28;;;;;;;0.10;0.10;;;4.90;99.90;;;;;;5023369;28;20041;-89
2022/12/30 03:36:01;;;;;;;0.08;0.08;;;4.90;99.90;;;;;;5006600;28;20071;-88
2022/12/30 03:38:33;;;;;;;0.00;0.00;;;4.80;99.90;;;;;;5024042;28;20051;-89
2022/12/30 03:41:08;;;;;;;0.00;0.00;;;4.80;99.90;;;;;;5022667;28;20411;-89
2022/12/30 03:43:34;;;;;;;0.15;0.15;;;4.80;99.90;;;;;;5039054;28;20077;-89
2022/12/30 03:46:00;;;;;;;0.17;0.13;;;4.70;99.90;;;;;;5002851;28;20518;-89
2022/12/30 03:49:20;;;;;;;0.00;0.00;;;4.80;99.90;;;;;;5017799;28;20052;-89
2022/12/30 03:51:46;;;;;;;0.08;0.08;;;4.80;99.90;;;;;;5058715;28;20098;-89
2022/12/30 03:54:12;;;;;;;0.00;0.00;;;4.70;99.90;;;;;;5043239;28;20156;-89
2022/12/30 03:56:38;;;;;;;0.10;0.10;;;4.70;99.90;;;;;;5060415;28;20127;-88
2022/12/30 04:03:08;;;;;;;0.10;0.08;;;4.70;99.90;;;;;;5060805;28;20052;-89
2022/12/30 04:09:23;;;;;;;3.78;0.20;;;4.60;99.90;;;;;;5076354;28;20039;-89
2022/12/30 04:15:23;;;;;;;0.10;0.10;;;4.50;99.90;;;;;;5058680;28;20090;-89
2022/12/30 04:17:49;;;;;;;0.15;0.15;;;4.50;99.90;;;;;;5025484;28;20044;-89
2022/12/30 04:20:16;;;;;;;1.77;0.10;;;4.50;99.90;;;;;;5058811;28;20178;-89
2022/12/30 04:26:30;;;;;;;0.63;0.10;;;4.50;99.90;;;;;;5096173;28;20034;-88
2022/12/30 04:32:42;;;;;;;;;;;4.50;99.90;;;;;;5096894;28;20066;-88
2022/12/30 04:35:45;;;;;;;0.10;0.10;;;4.40;99.90;;;;;;5062157;28;19920;-88
2022/12/30 04:38:11;;;;;;;0.08;0.08;;;4.40;99.90;;;;;;5038573;28;20053;-89
2022/12/30 04:40:39;;;;;;;0.33;0.13;;;4.40;99.90;;;;;;5005920;28;20135;-89
2022/12/30 04:43:05;;;;;;;0.10;0.10;;;4.40;99.90;;;;;;5041944;28;20102;-89
2022/12/30 04:45:30;;;;;;;0.00;0.00;;;4.40;99.90;;;;;;5077398;28;20052;-89
2022/12/30 04:47:56;;;;;;;0.10;0.10;;;4.40;99.90;;;;;;5061893;28;20044;-89
2022/12/30 04:50:22;;;;;;;0.53;0.53;;;4.60;99.90;;;;;;5045720;28;20504;-89
2022/12/30 04:52:48;;;;;;;0.00;0.00;;;4.30;99.90;;;;;;5052506;28;20075;-89
2022/12/30 04:55:13;;;;;;;0.03;0.03;;;4.30;99.90;;;;;;5051990;28;20036;-89
2022/12/30 04:57:39;;;;;;;0.40;0.40;;;4.30;99.90;;;;;;5041237;28;20063;-89
2022/12/30 05:00:06;;;;;;;0.10;0.10;;;4.30;99.90;;;;;;5025575;28;20617;-89
2022/12/30 05:06:14;;;;;;;0.55;0.40;;;4.30;99.90;;;;;;5075274;28;20055;-89
2022/12/30 05:08:40;;;;;;;0.40;0.17;;;4.30;99.90;;;;;;5057755;28;20098;-88
2022/12/30 05:11:06;;;;;;;1.53;0.40;;;4.40;99.90;;;;;;5024656;28;20441;-88
2022/12/30 05:13:34;;;;;;;0.00;0.00;;;4.20;99.90;;;;;;5025027;28;20044;-89
2022/12/30 05:16:00;;;;;;;0.35;0.00;;;4.20;99.90;;;;;;5039101;28;20048;-89
2022/12/30 05:18:26;;;;;;;0.63;0.17;;;4.20;99.90;;;;;;5005093;28;20502;-89
2022/12/30 05:20:51;;;;;;;0.00;0.00;;;4.20;99.90;;;;;;5037618;28;20079;-89
2022/12/30 05:26:13;;;;;;;0.40;0.40;;;4.10;99.90;;;;;;5037165;28;20053;-89
2022/12/30 05:28:39;;;;;;;;;;;4.10;99.90;;;;;;5017957;28;20111;-89
2022/12/30 05:31:07;;;;;;;0.40;0.15;;;4.10;99.90;;;;;;5045943;28;20371;-89
2022/12/30 05:33:33;;;;;;;0.00;0.00;;;4.10;99.90;;;;;;5028231;28;20053;-90
2022/12/30 05:35:59;;;;;;;0.00;0.00;;;4.10;99.90;;;;;;5036392;28;20055;-89
2022/12/30 05:38:25;;;;;;;0.33;0.10;;;4.10;99.90;;;;;;5020517;28;20041;-89
2022/12/30 05:40:54;;;;;;;0.70;0.70;;;4.10;99.90;;;;;;5020645;28;20110;-89
2022/12/30 05:43:20;;;;;;;0.17;0.17;;;4.00;99.90;;;;;;5050949;28;20102;-89
2022/12/30 05:45:45;;;;;;;0.37;0.20;;;3.00;99.90;;;;;;5039679;28;20123;-89
2022/12/30 05:48:11;;;;;;;0.00;0.00;;;4.00;99.90;;;;;;5036868;28;20107;-89
2022/12/30 05:50:42;;;;;;;0.00;0.00;;;4.00;99.90;;;;;;5039948;28;20466;-89
2022/12/30 05:53:21;;;;;;;0.03;0.03;;;4.00;99.90;;;;;;5056278;28;20501;-89
2022/12/30 05:55:54;;;;;;;0.20;0.20;;;3.90;99.90;;;;;;5022758;28;20529;-89
2022/12/30 05:58:37;;;;;;;0.30;0.15;;;4.00;99.90;;;;;;5046725;28;20053;-89
2022/12/30 06:01:02;;;;;;;0.00;0.00;;;4.00;99.90;;;;;;5038956;28;20403;-89
2022/12/30 06:03:31;;;;;;;0.10;0.10;;;3.90;99.90;;;;;;5023431;28;20044;-89
2022/12/30 06:06:13;;;;;;;;;;;;;;;;;;;;;
2022/12/30 06:09:11;;;;;;;2.00;0.17;;;4.00;99.90;;;;;;5012714;28;20125;-89
2022/12/30 06:11:39;;;;;;;0.00;0.00;;;4.10;99.90;;;;;;4996085;28;20433;-89
2022/12/30 06:14:05;;;;;;;0.73;0.22;;;3.90;99.90;;;;;;4995864;28;20042;-89
2022/12/30 06:16:57;;;;;;;0.10;0.00;;;3.90;99.90;;;;;;4996478;28;20084;-89
2022/12/30 06:19:30;;;;;;;0.00;0.00;;;2.90;99.90;;;;;;5015945;28;20049;-88
2022/12/30 06:22:32;;;;;;;0.10;0.10;;;3.90;99.90;;;;;;5031619;28;20041;-88
2022/12/30 06:28:12;;;;;;;0.00;0.00;;;3.90;99.90;;;;;;5056215;28;20048;-89
2022/12/30 06:30:42;;;;;;;0.05;0.00;;;3.90;99.90;;;;;;5038919;28;20053;-89
2022/12/30 06:33:10;;;;;;;0.28;0.22;;;3.90;99.90;;;;;;5056120;28;20048;-89
2022/12/30 06:35:38;;;;;;;0.00;0.00;;;3.90;99.90;;;;;;5039161;28;20494;-89
2022/12/30 06:38:07;;;;;;;0.00;0.00;;;3.80;99.90;;;;;;5055390;28;20510;-89
2022/12/30 06:40:37;;;;;;;0.25;0.25;;;3.80;99.90;;;;;;5056225;28;20052;-89
2022/12/30 06:43:06;;;;;;;0.08;0.08;;;3.90;99.90;;;;;;5056114;28;20055;-89
2022/12/30 06:45:40;;;;;;;0.00;0.00;;;3.80;99.90;;;;;;5038544;28;20037;-89
2022/12/30 06:48:08;;;;;;;0.10;0.10;;;3.80;99.90;;;;;;5055420;28;20049;-89
2022/12/30 06:50:44;;;;;;;;;;;;;;;;;;;;;
2022/12/30 06:53:16;;;;;;;0.10;0.10;;;3.80;99.90;;;;;;5055762;28;20049;-90
2022/12/30 06:55:52;;;;;;;0.05;0.05;;;3.90;99.90;;;;;;5055339;28;20040;-88
2022/12/30 06:58:30;;;;;;;;;;;;;;;;;;;;;
2022/12/30 07:01:37;;;;;;;0.00;0.00;;;3.80;99.90;;;;;;5092456;28;20561;-89
2022/12/30 07:04:05;;;;;;;0.10;0.10;;;3.50;99.90;;;;;;5053378;28;20040;-89
2022/12/30 07:06:31;;;;;;;0.10;0.10;;;3.70;99.90;;;;;;5042038;28;20509;-89
2022/12/30 07:08:57;;;;;;;0.20;0.10;;;3.80;99.90;;;;;;5040822;28;20052;-89
2022/12/30 07:11:30;;;;;;;0.97;0.10;;;3.80;99.90;;;;;;5058888;28;20051;-89
2022/12/30 07:14:03;;;;;;;0.10;0.10;;;3.80;99.90;;;;;;5075849;28;20044;-89
2022/12/30 07:30:47;;;;;;;0.25;0.25;;;3.80;99.90;;;;;;5072786;28;19927;-88
2022/12/30 07:33:13;;;;;;;0.70;0.37;;;3.80;99.90;;;;;;5022695;28;20040;-88
2022/12/30 07:43:24;;;;;;;0.00;0.00;;;3.80;99.90;;;;;;5072039;28;20040;-88
2022/12/30 07:53:56;;;;;;;0.10;0.03;;;3.80;99.90;;;;;;5072603;28;20043;-88
2022/12/30 07:56:22;;;;;;;0.00;0.00;;;3.80;99.90;;;;;;5045996;28;20567;-87
2022/12/30 07:58:48;;;;;;;0.07;0.03;;;3.90;99.90;;;;;;5038443;28;20080;-84
2022/12/30 08:01:14;;;;;;;0.20;0.10;;;3.80;99.90;;;;;;4989164;28;20041;-88
2022/12/30 08:03:40;;;;;;;0.20;0.20;;;3.80;99.90;;;;;;5016744;28;20137;-86
2022/12/30 08:06:08;;;;;;;0.00;0.00;;;3.80;99.90;;;;;;5032190;28;20110;-87
2022/12/30 08:08:35;;;;;;;4.38;0.28;;;3.80;99.90;;;;;;5020084;28;20052;-86
2022/12/30 08:11:10;;;;;;;0.00;0.00;;;3.90;99.90;;;;;;5007638;28;20061;-88
2022/12/30 08:13:41;;;;;;;0.10;0.10;;;4.30;99.90;;;;;;5032622;28;20055;-87
2022/12/30 08:16:09;;;;;;;0.35;0.32;;;3.50;99.90;;;;;;5036891;28;20048;-88
2022/12/30 08:18:35;;;;;;;0.32;0.10;;;3.90;99.90;;;;;;5038760;28;20483;-88
2022/12/30 08:21:05;;;;;;;0.10;0.10;;;3.90;99.90;;;;;;5056553;28;20119;-91
2022/12/30 08:23:34;;;;;;;0.00;0.00;;;4.00;99.90;;;;;;5014486;28;20325;-88
2022/12/30 08:26:12;;;;;;;0.00;0.00;;;4.00;99.90;;;;;;4995959;28;20044;-87
2022/12/30 08:28:38;;;;;;;0.00;0.00;;;4.00;99.90;;;;;;5053325;28;20032;-88
2022/12/30 08:31:11;;;;;;;0.20;0.20;;;4.00;99.90;;;;;;5037327;28;20064;-88
2022/12/30 08:33:36;;;;;;;0.15;0.15;;;4.00;99.90;;;;;;5037777;28;20569;-86
2022/12/30 08:36:07;;;;;;;0.00;0.00;;;4.00;99.90;;;;;;5038115;28;20066;-88
2022/12/30 08:38:37;;;;;;;0.10;0.10;;;3.60;99.90;;;;;;5037346;28;20044;-88
2022/12/30 08:41:33;;;;;;;0.10;0.10;;;4.00;99.90;;;;;;5037902;28;20051;-89
2022/12/30 08:44:00;;;;;;;0.10;0.10;;;4.10;99.90;;;;;;5048079;28;20059;-89
2022/12/30 08:46:29;;;;;;;0.20;0.20;;;4.10;99.90;;;;;;5030655;28;20494;-89
2022/12/30 08:48:58;;;;;;;0.10;0.08;;;4.10;99.90;;;;;;5021324;28;20044;-89
2022/12/30 08:51:24;;;;;;;0.10;0.10;;;4.20;99.90;;;;;;5037475;28;20044;-88
2022/12/30 08:53:55;;;;;;;0.20;0.20;;;4.10;99.90;;;;;;5038892;28;20113;-88
2022/12/30 08:56:32;;;;;;;0.10;0.10;;;4.20;99.90;;;;;;5071851;28;20068;-87
2022/12/30 08:58:58;;;;;;;0.45;0.17;;;4.20;99.90;;;;;;5074426;28;20105;-86
2022/12/30 09:01:41;;;;;;;0.47;0.10;;;4.30;99.90;;;;;;5039555;28;20580;-86
2022/12/30 09:04:09;;;;;;;0.65;0.20;;;3.80;99.90;;;;;;5056144;28;20099;-86
2022/12/30 09:06:38;;;;;;;0.00;0.00;;;4.20;99.90;;;;;;5040457;28;20064;-86
2022/12/30 09:09:07;;;;;;;0.17;0.17;;;4.30;99.90;;;;;;5062371;28;20478;-86
2022/12/30 09:11:42;;;;;;;0.38;0.20;;;4.30;99.90;;;;;;5053917;28;20055;-89
2022/12/30 09:14:13;;;;;;;0.03;0.03;;;4.40;99.90;;;;;;5044767;28;20490;-86
2022/12/30 09:16:39;;;;;;;0.00;0.00;;;4.40;99.90;;;;;;5040709;28;20533;-85
2022/12/30 09:19:07;;;;;;;0.45;0.20;;;4.40;99.90;;;;;;5043465;28;20059;-86
2022/12/30 09:21:38;;;;;;;0.00;0.00;;;4.50;99.90;;;;;;5060464;28;20054;-86
2022/12/30 09:24:11;;;;;;;0.00;0.00;;;4.50;99.90;;;;;;5060663;28;20052;-87
2022/12/30 09:26:39;;;;;;;1.27;0.50;;;4.00;99.90;;;;;;5061173;28;20500;-87
2022/12/30 09:29:05;;;;;;;0.22;0.20;;;4.60;99.90;;;;;;5060013;28;20513;-87
2022/12/30 09:31:30;;;;;;;0.30;0.13;;;4.90;99.90;;;;;;5059806;28;20048;-87
2022/12/30 09:34:05;;;;;;;0.00;0.00;;;4.70;99.90;;;;;;5074319;28;20036;-87
2022/12/30 09:36:36;;;;;;;0.05;0.05;;;5.30;99.90;;;;;;5056289;28;20147;-91
2022/12/30 09:39:15;;;;;;;0.00;0.00;;;4.20;99.90;;;;;;5044319;28;20063;-90
2022/12/30 09:44:59;;;;;;;0.20;0.20;;;4.90;99.90;;;;;;5056873;28;20135;-89
2022/12/30 09:47:51;;;;;;;0.00;0.00;;;5.00;99.90;;;;;;5057368;28;20080;-89
2022/12/30 09:50:39;;;;;;;0.00;0.00;;;5.00;99.90;;;;;;5056211;28;20548;-90
2022/12/30 09:53:08;;;;;;;0.10;0.10;;;5.10;99.90;;;;;;5039804;28;20201;-88
2022/12/30 09:55:45;;;;;;;0.10;0.10;;;5.00;99.90;;;;;;5062271;28;20039;-88
2022/12/30 09:58:28;;;;;;;0.30;0.30;;;5.10;99.90;;;;;;5040835;28;20140;-89
2022/12/30 10:00:56;;;;;;;0.00;0.00;;;5.10;99.90;;;;;;5039387;28;20501;-88
2022/12/30 10:03:27;;;;;;;0.35;0.10;;;5.10;99.90;;;;;;5055826;28;20063;-88
2022/12/30 10:06:07;;;;;;;0.00;0.00;;;5.20;99.90;;;;;;5040635;28;20036;-87
2022/12/30 10:09:03;;;;;;;0.70;0.63;;;5.20;99.90;;;;;;5048210;28;20490;-88
2022/12/30 10:11:35;;;;;;;0.00;0.00;;;5.20;99.90;;;;;;5046345;28;20051;-85
2022/12/30 10:14:29;;;;;;;0.10;0.10;;;5.30;99.90;;;;;;5073526;28;20074;-89
2022/12/30 10:17:06;;;;;;;0.45;0.25;;;5.40;99.90;;;;;;5054370;28;20048;-88
2022/12/30 10:19:39;;;;;;;0.00;0.00;;;4.50;99.90;;;;;;5038818;28;20534;-88
2022/12/30 10:22:19;;;;;;;1.60;0.20;;;5.60;99.90;;;;;;5038811;28;20041;-89
2022/12/30 10:24:58;;;;;;;0.10;0.10;;;5.50;99.90;;;;;;5038986;28;20048;-90
2022/12/30 10:30:55;;;;;;;0.00;0.00;;;5.60;99.90;;;;;;5067316;28;20119;-88
2022/12/30 10:33:23;;;;;;;0.10;0.10;;;5.70;99.90;;;;;;5039341;28;20480;-88
2022/12/30 10:35:53;;;;;;;0.38;0.15;;;5.70;99.90;;;;;;5056413;28;20552;-89
2022/12/30 10:38:25;;;;;;;0.10;0.10;;;5.80;99.90;;;;;;5025921;28;20056;-93
2022/12/30 10:41:20;;;;;;;0.90;0.40;;;6.20;99.90;;;;;;5055447;28;20047;-88
2022/12/30 10:44:16;;;;;;;0.00;0.00;;;6.00;99.90;;;;;;5039419;28;20449;-88
2022/12/30 10:50:40;;;;;;;0.10;0.10;;;6.10;99.90;;;;;;5047820;28;20035;-85
2022/12/30 10:53:18;;;;;;;0.20;0.20;;;6.20;99.90;;;;;;5055517;28;20087;-86
2022/12/30 10:55:55;;;;;;;0.10;0.10;;;6.20;99.90;;;;;;5064208;28;20040;-87
2022/12/30 10:58:29;;;;;;;0.20;0.17;;;6.30;99.90;;;;;;5075044;28;20059;-86
2022/12/30 11:00:55;;;;;;;0.13;0.13;;;6.30;99.90;;;;;;5058334;28;20051;-87
2022/12/30 11:03:29;;;;;;;0.10;0.10;;;6.30;99.90;;;;;;5041285;28;20044;-87
2022/12/30 11:05:56;;;;;;;0.00;0.00;;;6.30;99.90;;;;;;5055145;28;20040;-87
2022/12/30 11:08:25;;;;;;;0.47;0.13;;;6.40;99.90;;;;;;5038839;28;20078;-85
2022/12/30 11:11:05;;;;;;;0.00;0.00;;;6.40;99.90;;;;;;5038268;28;20078;-86
2022/12/30 11:16:32;;;;;;;0.17;0.17;;;6.40;99.90;;;;;;5052642;28;20099;-89
2022/12/30 11:18:59;;;;;;;0.20;0.10;;;6.40;99.90;;;;;;5038994;28;20052;-85
2022/12/30 11:21:43;;;;;;;0.22;0.10;;;6.40;99.90;;;;;;5056576;28;20048;-86
2022/12/30 11:24:15;;;;;;;0.00;0.00;;;6.40;99.90;;;;;;5052372;28;20041;-85
2022/12/30 11:26:47;;;;;;;0.40;0.03;;;6.50;99.90;;;;;;5054091;28;20087;-85
2022/12/30 11:29:16;;;;;;;0.17;0.10;;;6.50;99.90;;;;;;5038850;28;20037;-85
2022/12/30 11:31:47;;;;;;;0.50;0.22;;;6.50;99.90;;;;;;5051294;28;20045;-85
2022/12/30 11:34:39;;;;;;;0.00;0.00;;;6.60;99.90;;;;;;5048436;28;20037;-88
2022/12/30 11:37:35;;;;;;;0.10;0.10;;;6.60;99.90;;;;;;5038462;28;20441;-87
2022/12/30 11:40:39;;;;;;;0.20;0.13;;;6.60;99.90;;;;;;5073610;28;20044;-86
2022/12/30 11:43:16;;;;;;;2.10;0.08;;;6.70;99.90;;;;;;4974976;28;20053;-87
2022/12/30 11:46:11;;;;;;;0.10;0.10;;;6.70;99.90;;;;;;4970431;28;20489;-86
2022/12/30 11:48:43;;;;;;;0.15;0.00;;;6.80;99.90;;;;;;5060223;28;20421;-87
2022/12/30 11:51:42;;;;;;;0.00;0.00;;;6.80;99.90;;;;;;5075158;28;20458;-86
2022/12/30 11:54:11;;;;;;;0.00;0.00;;;6.90;99.90;;;;;;5077636;28;20106;-86
2022/12/30 11:56:49;;;;;;;0.00;0.00;;;6.90;99.90;;;;;;5078431;28;20084;-85
2022/12/30 11:59:18;;;;;;;0.15;0.15;;;6.90;99.90;;;;;;5085863;28;20051;-89
2022/12/30 12:01:47;;;;;;;0.80;0.08;;;7.00;99.90;;;;;;5084556;28;20045;-89
2022/12/30 12:04:37;;;;;;;0.10;0.10;;;6.90;99.90;;;;;;5067464;28;20044;-88
2022/12/30 12:07:16;;;;;;;0.05;0.05;;;7.00;99.90;;;;;;5077130;28;20391;-89
2022/12/30 12:10:00;;;;;;;0.10;0.10;;;7.00;99.90;;;;;;5058730;28;20048;-86
2022/12/30 12:12:33;;;;;;;0.22;0.20;;;7.00;99.90;;;;;;5075994;28;20040;-85
2022/12/30 12:15:05;;;;;;;0.15;0.15;;;7.10;99.90;;;;;;5061528;28;20047;-86
2022/12/30 12:17:42;;;;;;;0.10;0.10;;;7.10;99.90;;;;;;5072897;28;20052;-86
2022/12/30 12:20:14;;;;;;;0.10;0.10;;;7.10;99.90;;;;;;5061977;28;20047;-86
2022/12/30 12:22:59;;;;;;;0.10;0.10;;;7.10;99.90;;;;;;5094843;28;20097;-86
2022/12/30 12:25:30;;;;;;;1.35;0.10;;;7.10;99.90;;;;;;5082488;28;20047;-86
2022/12/30 12:27:55;;;;;;;0.10;0.10;;;7.20;99.90;;;;;;5080614;28;20158;-85
2022/12/30 12:30:21;;;;;;;0.43;0.10;;;7.20;99.90;;;;;;5044744;28;20135;-85
2022/12/30 12:33:11;;;;;;;0.20;0.20;;;7.20;99.90;;;;;;5078003;28;20363;-86
2022/12/30 12:36:14;;;;;;;0.60;0.10;;;7.20;99.90;;;;;;5061810;28;20048;-92
2022/12/30 12:38:53;;;;;;;0.08;0.08;;;7.20;99.90;;;;;;5040704;28;20146;-87
2022/12/30 12:41:37;;;;;;;0.08;0.08;;;7.30;99.90;;;;;;5061851;28;20517;-86
2022/12/30 12:44:29;;;;;;;0.28;0.10;;;7.30;99.90;;;;;;5061835;28;20105;-86
2022/12/30 12:47:17;;;;;;;0.00;0.00;;;7.30;99.90;;;;;;5077655;28;20036;-86
2022/12/30 12:50:10;;;;;;;0.00;0.00;;;7.30;99.90;;;;;;5067402;28;20371;-92
2022/12/30 12:53:11;;;;;;;0.00;0.00;;;7.40;99.90;;;;;;5061319;28;20056;-88
2022/12/30 12:56:08;;;;;;;0.30;0.20;;;7.40;99.90;;;;;;5020481;28;20101;-87
2022/12/30 12:59:08;;;;;;;0.00;0.00;;;7.40;99.90;;;;;;5061281;28;20455;-87
2022/12/30 13:01:59;;;;;;;0.00;0.00;;;7.50;99.90;;;;;;5046052;28;20096;-89
2022/12/30 13:04:47;;;;;;;0.35;0.22;;;7.50;99.90;;;;;;5072415;28;20051;-88
2022/12/30 13:07:40;;;;;;;0.00;0.00;;;7.50;99.90;;;;;;5056541;28;20044;-87
2022/12/30 13:10:18;;;;;;;0.00;0.00;;;7.60;99.90;;;;;;5041367;28;20135;-86
2022/12/30 13:13:11;;;;;;;0.17;0.17;;;7.50;99.90;;;;;;5040816;28;20094;-87
2022/12/30 13:15:50;;;;;;;0.10;0.08;;;7.60;99.90;;;;;;5057229;28;20368;-86
2022/12/30 13:18:27;;;;;;;0.10;0.10;;;7.60;99.90;;;;;;5057399;28;20380;-86
2022/12/30 13:20:56;;;;;;;0.30;0.10;;;7.60;99.90;;;;;;5040232;28;20036;-86
2022/12/30 13:23:29;;;;;;;0.00;0.00;;;7.60;99.90;;;;;;5057075;28;20041;-86
2022/12/30 13:26:04;;;;;;;0.25;0.10;;;7.60;99.90;;;;;;5057502;28;20084;-86
2022/12/30 13:28:33;;;;;;;0.10;0.10;;;7.60;99.90;;;;;;5040439;28;20124;-86
2022/12/30 13:31:12;;;;;;;0.00;0.00;;;7.70;99.90;;;;;;5076524;28;20047;-86
2022/12/30 13:33:57;;;;;;;0.00;0.00;;;7.70;99.90;;;;;;5077305;28;20048;-86
2022/12/30 13:36:43;;;;;;;0.00;0.00;;;7.70;99.90;;;;;;5076899;28;20398;-86
2022/12/30 13:39:38;;;;;;;1.20;0.40;;;7.70;99.90;;;;;;5077002;28;20048;-86
2022/12/30 13:42:34;;;;;;;0.00;0.00;;;7.70;99.90;;;;;;5059842;28;20116;-86
2022/12/30 13:45:01;;;;;;;0.10;0.10;;;7.70;99.90;;;;;;5059568;28;20047;-86
2022/12/30 13:47:32;;;;;;;0.10;0.10;;;7.80;99.90;;;;;;5059581;28;20139;-86
2022/12/30 13:50:00;;;;;;;0.00;0.00;;;7.80;99.90;;;;;;5075902;28;20133;-87
2022/12/30 13:52:28;;;;;;;1.13;0.20;;;7.80;99.90;;;;;;5043088;28;20058;-86
2022/12/30 13:54:59;;;;;;;0.00;0.00;;;7.80;99.90;;;;;;5058797;28;20044;-87
2022/12/30 13:57:36;;;;;;;0.00;0.00;;;7.90;99.90;;;;;;5059443;28;20087;-86
2022/12/30 14:00:24;;;;;;;0.00;0.00;;;7.90;99.90;;;;;;5075660;28;20090;-86
2022/12/30 14:03:00;;;;;;;0.00;0.00;;;7.90;99.90;;;;;;5058922;28;20044;-86
2022/12/30 14:05:36;;;;;;;0.00;0.00;;;8.00;99.90;;;;;;5059277;28;20043;-86
2022/12/30 14:08:19;;;;;;;0.15;0.15;;;7.90;99.90;;;;;;5075557;28;20398;-86
2022/12/30 14:11:00;;;;;;;0.20;0.20;;;8.00;99.90;;;;;;5058993;28;20051;-86
2022/12/30 14:13:26;;;;;;;0.40;0.40;;;8.00;99.90;;;;;;5059305;28;20047;-86
2022/12/30 14:15:55;;;;;;;0.30;0.17;;;8.10;99.90;;;;;;5074483;28;20043;-86
2022/12/30 14:18:37;;;;;;;0.10;0.10;;;8.10;99.90;;;;;;5075615;28;20620;-86
2022/12/30 14:21:13;;;;;;;0.22;0.22;;;8.10;99.90;;;;;;5058679;28;20052;-86
2022/12/30 14:23:45;;;;;;;0.00;0.00;;;8.10;99.90;;;;;;5059283;28;20052;-86
2022/12/30 14:26:28;;;;;;;1.98;0.65;;;8.10;99.90;;;;;;5075142;28;20048;-86
2022/12/30 14:29:00;;;;;;;0.32;0.08;;;8.10;99.90;;;;;;5074987;28;20478;-86
2022/12/30 14:31:27;;;;;;;0.10;0.10;;;8.10;99.90;;;;;;5075472;28;20073;-86
2022/12/30 14:33:56;;;;;;;0.22;0.13;;;8.10;99.90;;;;;;5058052;28;20090;-87
2022/12/30 14:36:28;;;;;;;0.03;0.03;;;8.10;99.90;;;;;;5075046;28;20059;-86
2022/12/30 14:38:53;;;;;;;0.25;0.00;;;8.00;99.90;;;;;;5075078;28;20515;-87
2022/12/30 14:41:38;;;;;;;0.10;0.10;;;8.00;99.90;;;;;;5058949;28;20079;-86
2022/12/30 14:44:13;;;;;;;0.10;0.10;;;8.00;99.90;;;;;;5058525;28;20083;-86
2022/12/30 14:46:42;;;;;;;0.20;0.20;;;8.00;99.90;;;;;;5075613;28;20102;-86
2022/12/30 14:49:17;;;;;;;0.00;0.00;;;8.00;99.90;;;;;;5074825;28;20142;-86
2022/12/30 14:51:48;;;;;;;0.00;0.00;;;8.00;99.90;;;;;;5058883;28;20135;-86
2022/12/30 14:54:19;;;;;;;0.10;0.10;;;8.00;99.90;;;;;;5058150;28;20050;-86
2022/12/30 14:56:54;;;;;;;0.00;0.00;;;8.00;99.90;;;;;;5075367;28;20054;-86
2022/12/30 14:59:21;;;;;;;0.10;0.10;;;8.00;99.90;;;;;;5074872;28;20052;-86
2022/12/30 15:02:16;;;;;;;0.20;0.20;;;7.90;99.90;;;;;;5058330;28;20036;-86
2022/12/30 15:04:42;;;;;;;0.22;0.10;;;7.90;99.90;;;;;;5075395;28;20127;-85
2022/12/30 15:07:09;;;;;;;0.10;0.10;;;7.80;99.90;;;;;;5057973;28;20087;-86
2022/12/30 15:09:36;;;;;;;0.10;0.05;;;7.80;99.90;;;;;;5058219;28;20555;-86
2022/12/30 15:12:02;;;;;;;;;;;7.70;99.90;;;;;;5042204;28;20040;-86
2022/12/30 15:14:28;;;;;;;0.52;0.00;;;7.80;99.90;;;;;;5075135;28;19920;-86
2022/12/30 15:17:33;;;;;;;0.20;0.20;;;7.80;99.90;;;;;;5075294;28;20044;-86
2022/12/30 15:20:00;;;;;;;0.05;0.03;;;7.80;99.90;;;;;;5074601;28;20051;-87
2022/12/30 15:22:36;;;;;;;0.38;0.25;;;7.80;99.90;;;;;;5042506;28;20050;-86
2022/12/30 15:25:14;;;;;;;2.15;0.40;;;7.80;99.90;;;;;;5074789;28;20545;-87
2022/12/30 15:27:40;;;;;;;0.20;0.20;;;7.80;99.90;;;;;;5077853;28;20048;-86
2022/12/30 15:30:11;;;;;;;0.10;0.10;;;7.80;99.90;;;;;;5062028;28;20113;-86
2022/12/30 15:32:37;;;;;;;1.25;0.43;;;7.80;99.90;;;;;;5078790;28;20553;-85
2022/12/30 15:35:12;;;;;;;0.17;0.15;;;7.70;99.90;;;;;;5078092;28;20128;-86
2022/12/30 15:37:40;;;;;;;0.45;0.10;;;7.70;99.90;;;;;;5078482;28;20051;-86
2022/12/30 15:40:11;;;;;;;0.43;0.32;;;7.70;99.90;;;;;;5078364;28;20398;-85
2022/12/30 15:42:45;;;;;;;0.20;0.20;;;7.70;99.90;;;;;;5078743;28;20132;-85
2022/12/30 15:45:25;;;;;;;0.47;0.43;;;7.70;99.90;;;;;;5078594;28;20091;-85
2022/12/30 15:47:54;;;;;;;0.10;0.10;;;7.70;99.90;;;;;;5078773;28;20131;-85
2022/12/30 15:50:39;;;;;;;0.28;0.20;;;7.60;99.90;;;;;;5078148;28;20040;-85
2022/12/30 15:53:27;;;;;;;0.20;0.20;;;7.60;99.90;;;;;;5077986;28;20044;-85
2022/12/30 15:55:55;;;;;;;0.20;0.20;;;7.60;99.90;;;;;;5078221;28;20490;-85
2022/12/30 15:58:34;;;;;;;0.10;0.10;;;7.60;99.90;;;;;;5077863;28;20110;-84
2022/12/30 16:01:12;;;;;;;0.52;0.22;;;7.60;99.90;;;;;;5078596;28;20466;-84
2022/12/30 16:03:39;;;;;;;0.75;0.40;;;7.60;99.90;;;;;;5078187;28;20044;-84
2022/12/30 16:06:05;;;;;;;0.75;0.20;;;7.60;99.90;;;;;;5077654;28;20547;-84